DLH25E CYYZ-KJFK
Flight info
| Callsign | DLH25E |
|---|---|
| Flight time | N/A |
| Altitude | 37000 |
| Route | KEPTA3 BMPAH DCT AEVON DCT EXTOL Q140 MEMMS PUCKY1 |
| Aircraft | A359/H-SDE2E3GHIJ3J4J5LM1ORWXY/LB1D1 |
Departure
| Time | 2026-05-08 00:54 |
|---|---|
| Airport | Toronto Pearson International Airport (CYYZ) |
Arrival
| Time | N/A |
|---|---|
| Airport | John F. Kennedy International Airport (KJFK) |
| Time | Latitude | Longitude | Altitude | Speed | Heading |
|---|---|---|---|---|---|
| 2026-05-08 00:26 | 43.67573 | -79.61171 | 573 ft | 0 kts | 3° |
| 2026-05-08 00:39 | 43.67547 | -79.61173 | 571 ft | 4 kts | 3° |
| 2026-05-08 00:39 | 43.67566 | -79.61171 | 577 ft | 0 kts | 3° |
| 2026-05-08 00:40 | 43.67547 | -79.61176 | 570 ft | 2 kts | 10° |
| 2026-05-08 00:40 | 43.67533 | -79.61172 | 575 ft | 3 kts | 332° |
| 2026-05-08 00:41 | 43.67516 | -79.61161 | 573 ft | 2 kts | 339° |
| 2026-05-08 00:41 | 43.67502 | -79.61148 | 574 ft | 3 kts | 313° |
| 2026-05-08 00:41 | 43.67488 | -79.61126 | 575 ft | 2 kts | 295° |
| 2026-05-08 00:41 | 43.67485 | -79.61108 | 576 ft | 3 kts | 266° |
| 2026-05-08 00:42 | 43.67487 | -79.61085 | 576 ft | 3 kts | 259° |
| 2026-05-08 00:42 | 43.67573 | -79.61171 | 570 ft | 2 kts | 7° |
| 2026-05-08 00:42 | 43.67574 | -79.61170 | 569 ft | 2 kts | 20° |
| 2026-05-08 00:42 | 43.67555 | -79.61181 | 573 ft | 3 kts | 31° |
| 2026-05-08 00:43 | 43.67539 | -79.61197 | 574 ft | 3 kts | 41° |
| 2026-05-08 00:43 | 43.67528 | -79.61211 | 575 ft | 2 kts | 50° |
| 2026-05-08 00:43 | 43.67519 | -79.61231 | 572 ft | 3 kts | 65° |
| 2026-05-08 00:43 | 43.67512 | -79.61256 | 570 ft | 3 kts | 78° |
| 2026-05-08 00:44 | 43.67510 | -79.61283 | 570 ft | 3 kts | 89° |
| 2026-05-08 00:44 | 43.67509 | -79.61289 | 567 ft | 0 kts | 90° |
| 2026-05-08 00:45 | 43.67509 | -79.61286 | 569 ft | 0 kts | 93° |
| 2026-05-08 00:46 | 43.67507 | -79.61282 | 569 ft | 1 kts | 111° |
| 2026-05-08 00:46 | 43.67488 | -79.61276 | 572 ft | 7 kts | 171° |
| 2026-05-08 00:47 | 43.67411 | -79.61301 | 573 ft | 14 kts | 204° |
| 2026-05-08 00:47 | 43.67358 | -79.61378 | 571 ft | 7 kts | 247° |
| 2026-05-08 00:47 | 43.67360 | -79.61401 | 571 ft | 1 kts | 304° |
| 2026-05-08 00:47 | 43.67363 | -79.61403 | 570 ft | 2 kts | 321° |
| 2026-05-08 00:48 | 43.67405 | -79.61443 | 573 ft | 12 kts | 324° |
| 2026-05-08 00:48 | 43.67494 | -79.61548 | 574 ft | 20 kts | 317° |
| 2026-05-08 00:48 | 43.67595 | -79.61678 | 579 ft | 20 kts | 317° |
| 2026-05-08 00:48 | 43.67699 | -79.61813 | 576 ft | 22 kts | 316° |
| 2026-05-08 00:49 | 43.67814 | -79.61963 | 575 ft | 24 kts | 316° |
| 2026-05-08 00:49 | 43.67957 | -79.62096 | 574 ft | 25 kts | 327° |
| 2026-05-08 00:49 | 43.68085 | -79.62250 | 570 ft | 25 kts | 316° |
| 2026-05-08 00:49 | 43.68210 | -79.62412 | 578 ft | 24 kts | 318° |
| 2026-05-08 00:50 | 43.68336 | -79.62565 | 576 ft | 24 kts | 317° |
| 2026-05-08 00:50 | 43.68460 | -79.62726 | 578 ft | 26 kts | 315° |
| 2026-05-08 00:50 | 43.68596 | -79.62904 | 575 ft | 28 kts | 316° |
| 2026-05-08 00:50 | 43.68741 | -79.63093 | 576 ft | 29 kts | 316° |
| 2026-05-08 00:51 | 43.68888 | -79.63285 | 578 ft | 29 kts | 317° |
| 2026-05-08 00:51 | 43.69031 | -79.63480 | 581 ft | 28 kts | 311° |
| 2026-05-08 00:51 | 43.69098 | -79.63523 | 577 ft | 0 kts | 5° |
| 2026-05-08 00:51 | 43.69138 | -79.63492 | 580 ft | 14 kts | 36° |
| 2026-05-08 00:52 | 43.69245 | -79.63423 | 574 ft | 21 kts | 8° |
| 2026-05-08 00:52 | 43.69305 | -79.63418 | 572 ft | 4 kts | 0° |
| 2026-05-08 00:52 | 43.69321 | -79.63418 | 574 ft | 0 kts | 358° |
| 2026-05-08 00:53 | 43.69352 | -79.63431 | 570 ft | 11 kts | 332° |
| 2026-05-08 00:53 | 43.69387 | -79.63531 | 574 ft | 12 kts | 251° |
| 2026-05-08 00:53 | 43.69271 | -79.63698 | 576 ft | 52 kts | 225° |
| 2026-05-08 00:54 | 43.68864 | -79.64299 | 579 ft | 117 kts | 226° |
| 2026-05-08 00:54 | 43.68174 | -79.65309 | 663 ft | 165 kts | 226° |
| 2026-05-08 00:54 | 43.67379 | -79.66450 | 1466 ft | 160 kts | 228° |
| 2026-05-08 00:54 | 43.66693 | -79.67651 | 2246 ft | 159 kts | 237° |
| 2026-05-08 00:55 | 43.66066 | -79.68942 | 2793 ft | 165 kts | 239° |
| 2026-05-08 00:55 | 43.65409 | -79.70320 | 3213 ft | 180 kts | 238° |
| 2026-05-08 00:55 | 43.64655 | -79.71845 | 3466 ft | 205 kts | 237° |
| 2026-05-08 00:55 | 43.63805 | -79.73547 | 3810 ft | 226 kts | 237° |
| 2026-05-08 00:56 | 43.62870 | -79.75401 | 4256 ft | 242 kts | 237° |
| 2026-05-08 00:56 | 43.61880 | -79.77321 | 4927 ft | 249 kts | 234° |
| 2026-05-08 00:56 | 43.60636 | -79.79016 | 5667 ft | 255 kts | 218° |
| 2026-05-08 00:56 | 43.59002 | -79.80010 | 6413 ft | 263 kts | 194° |
| 2026-05-08 00:57 | 43.57156 | -79.79846 | 6916 ft | 275 kts | 163° |
| 2026-05-08 00:57 | 43.55595 | -79.78275 | 7524 ft | 288 kts | 130° |
| 2026-05-08 00:57 | 43.54542 | -79.75905 | 8285 ft | 292 kts | 121° |
| 2026-05-08 00:57 | 43.53720 | -79.73320 | 8974 ft | 298 kts | 109° |
| 2026-05-08 00:58 | 43.53165 | -79.70541 | 9698 ft | 303 kts | 105° |
| 2026-05-08 00:58 | 43.52684 | -79.67687 | 10300 ft | 311 kts | 104° |
| 2026-05-08 00:58 | 43.52208 | -79.64695 | 10635 ft | 328 kts | 103° |
| 2026-05-08 00:58 | 43.51726 | -79.61592 | 10948 ft | 344 kts | 103° |
| 2026-05-08 00:59 | 43.51217 | -79.58292 | 11260 ft | 360 kts | 103° |
| 2026-05-08 00:59 | 43.50690 | -79.54860 | 11673 ft | 370 kts | 103° |
| 2026-05-08 00:59 | 43.50155 | -79.51371 | 12242 ft | 376 kts | 103° |
| 2026-05-08 00:59 | 43.49610 | -79.47829 | 12846 ft | 380 kts | 104° |
| 2026-05-08 01:00 | 43.49059 | -79.44254 | 13460 ft | 383 kts | 104° |
| 2026-05-08 01:00 | 43.48501 | -79.40649 | 14035 ft | 386 kts | 104° |
| 2026-05-08 01:00 | 43.47939 | -79.37015 | 14598 ft | 389 kts | 104° |
| 2026-05-08 01:00 | 43.47372 | -79.33351 | 15117 ft | 393 kts | 104° |
| 2026-05-08 01:01 | 43.46798 | -79.29656 | 15668 ft | 397 kts | 104° |
| 2026-05-08 01:01 | 43.46218 | -79.25935 | 16206 ft | 400 kts | 103° |
| 2026-05-08 01:01 | 43.45631 | -79.22174 | 16760 ft | 403 kts | 103° |
| 2026-05-08 01:01 | 43.45037 | -79.18379 | 17292 ft | 407 kts | 103° |
| 2026-05-08 01:02 | 43.44428 | -79.14567 | 17825 ft | 410 kts | 104° |
| 2026-05-08 01:02 | 43.43534 | -79.10831 | 18331 ft | 412 kts | 113° |
| 2026-05-08 01:02 | 43.42426 | -79.07185 | 18792 ft | 415 kts | 114° |
| 2026-05-08 01:02 | 43.41280 | -79.03523 | 19268 ft | 417 kts | 115° |
| 2026-05-08 01:03 | 43.40130 | -78.99851 | 19750 ft | 419 kts | 115° |
| 2026-05-08 01:03 | 43.38976 | -78.96159 | 20205 ft | 422 kts | 114° |
| 2026-05-08 01:03 | 43.37815 | -78.92441 | 20656 ft | 425 kts | 114° |
| 2026-05-08 01:03 | 43.36646 | -78.88700 | 21110 ft | 427 kts | 114° |
| 2026-05-08 01:04 | 43.35470 | -78.84936 | 21559 ft | 430 kts | 114° |
| 2026-05-08 01:04 | 43.34285 | -78.81147 | 22001 ft | 433 kts | 114° |
| 2026-05-08 01:04 | 43.33092 | -78.77339 | 22427 ft | 435 kts | 114° |
| 2026-05-08 01:04 | 43.31894 | -78.73515 | 22861 ft | 438 kts | 114° |
| 2026-05-08 01:05 | 43.30684 | -78.69656 | 23282 ft | 441 kts | 114° |
| 2026-05-08 01:05 | 43.29464 | -78.65781 | 23669 ft | 443 kts | 115° |
| 2026-05-08 01:05 | 43.28236 | -78.61887 | 23977 ft | 447 kts | 115° |
| 2026-05-08 01:05 | 43.26993 | -78.57949 | 24282 ft | 451 kts | 115° |
| 2026-05-08 01:06 | 43.25741 | -78.53989 | 24577 ft | 455 kts | 115° |
| 2026-05-08 01:06 | 43.24473 | -78.49983 | 24766 ft | 462 kts | 116° |
| 2026-05-08 01:06 | 43.23183 | -78.45913 | 24957 ft | 468 kts | 116° |
| 2026-05-08 01:06 | 43.21882 | -78.41815 | 25294 ft | 470 kts | 116° |
| 2026-05-08 01:07 | 43.20570 | -78.37687 | 25593 ft | 474 kts | 116° |
| 2026-05-08 01:07 | 43.19186 | -78.33647 | 25884 ft | 475 kts | 122° |
| 2026-05-08 01:07 | 43.17375 | -78.29809 | 26207 ft | 474 kts | 130° |
| 2026-05-08 01:07 | 43.15396 | -78.26254 | 26514 ft | 476 kts | 133° |
| 2026-05-08 01:08 | 43.13279 | -78.22688 | 26836 ft | 479 kts | 134° |
| 2026-05-08 01:08 | 43.11136 | -78.19175 | 27143 ft | 482 kts | 135° |
| 2026-05-08 01:08 | 43.08974 | -78.15649 | 27482 ft | 485 kts | 135° |
| 2026-05-08 01:08 | 43.06805 | -78.12100 | 27806 ft | 489 kts | 135° |
| 2026-05-08 01:09 | 43.04652 | -78.08554 | 28149 ft | 492 kts | 135° |
| 2026-05-08 01:09 | 43.02435 | -78.04883 | 28471 ft | 496 kts | 135° |
| 2026-05-08 01:09 | 43.00266 | -78.01278 | 28791 ft | 500 kts | 135° |
| 2026-05-08 01:09 | 42.98020 | -77.97545 | 28995 ft | 505 kts | 135° |
| 2026-05-08 01:10 | 42.95777 | -77.93820 | 29217 ft | 510 kts | 136° |
| 2026-05-08 01:10 | 42.93562 | -77.90006 | 29519 ft | 517 kts | 132° |
| 2026-05-08 01:10 | 42.91672 | -77.85777 | 29824 ft | 529 kts | 122° |
| 2026-05-08 01:10 | 42.90293 | -77.81145 | 30093 ft | 539 kts | 112° |
| 2026-05-08 01:11 | 42.89175 | -77.76248 | 30382 ft | 543 kts | 110° |
| 2026-05-08 01:11 | 42.88156 | -77.71275 | 30672 ft | 546 kts | 109° |
| 2026-05-08 01:11 | 42.87179 | -77.66260 | 30961 ft | 549 kts | 108° |
| 2026-05-08 01:11 | 42.86207 | -77.61218 | 31236 ft | 551 kts | 108° |
| 2026-05-08 01:12 | 42.85543 | -77.57797 | 31396 ft | 553 kts | 108° |